Time;durP1;ratioP1;P1;durP2;ratioP2;P2;SDS_P1;SDS_P2;PMS_P1;PMS_P2;Temp;Humidity;BMP_temperature;BMP_pressure;BME280_temperature;BME280_humidity;BME280_pressure;Samples;Min_cycle;Max_cycle;Signal;HPM_P1;HPM_P2
2022/06/19 00:02:05;;;;;;;13.88;3.63;;;15.00;99.90;;;;;;4997512;28;20046;-90
2022/06/19 00:04:31;;;;;;;14.68;3.40;;;14.90;99.90;;;;;;4988365;28;20030;-89
2022/06/19 00:06:57;;;;;;;15.38;3.60;;;14.90;99.90;;;;;;4994302;28;20045;-88
2022/06/19 00:09:25;;;;;;;16.70;3.97;;;14.90;99.90;;;;;;4992869;28;20173;-89
2022/06/19 00:11:52;;;;;;;15.13;3.63;;;14.90;99.90;;;;;;4975101;28;20049;-88
2022/06/19 00:14:17;;;;;;;14.80;4.18;;;14.80;99.90;;;;;;4991381;28;20046;-90
2022/06/19 00:16:43;;;;;;;25.02;4.28;;;14.80;99.90;;;;;;5000350;28;20408;-86
2022/06/19 00:19:08;;;;;;;18.58;3.45;;;14.80;99.90;;;;;;5003682;28;20293;-89
2022/06/19 00:21:34;;;;;;;16.27;3.40;;;14.80;99.90;;;;;;4997816;28;20068;-89
2022/06/19 00:24:00;;;;;;;13.27;3.05;;;14.80;99.90;;;;;;4995057;28;20057;-90
2022/06/19 00:26:26;;;;;;;11.98;2.90;;;14.80;99.90;;;;;;4974662;28;20084;-91
2022/06/19 00:28:51;;;;;;;15.20;3.10;;;14.80;99.90;;;;;;4976427;28;20402;-88
2022/06/19 00:31:17;;;;;;;11.90;2.90;;;14.90;99.90;;;;;;4994150;28;20068;-89
2022/06/19 00:33:43;;;;;;;14.07;3.40;;;14.80;99.90;;;;;;5001870;28;20572;-89
2022/06/19 00:36:09;;;;;;;13.10;3.42;;;14.70;99.90;;;;;;4990872;28;20058;-90
2022/06/19 00:38:35;;;;;;;13.45;2.75;;;14.70;99.90;;;;;;4997211;28;20044;-88
2022/06/19 00:41:01;;;;;;;13.43;2.83;;;14.70;99.90;;;;;;4995305;28;20038;-88
2022/06/19 00:43:28;;;;;;;14.75;3.38;;;14.70;99.90;;;;;;4999843;28;20104;-87
2022/06/19 00:45:58;;;;;;;13.32;2.83;;;14.80;99.90;;;;;;4976927;28;20560;-88
2022/06/19 00:48:30;;;;;;;14.27;3.23;;;14.70;99.90;;;;;;5016893;28;20165;-87
2022/06/19 00:51:00;;;;;;;13.35;3.00;;;14.80;99.90;;;;;;4991980;28;20303;-90
2022/06/19 00:53:41;;;;;;;16.02;3.28;;;14.70;99.90;;;;;;4997695;28;20041;-87
2022/06/19 00:56:10;;;;;;;15.15;3.10;;;14.80;99.90;;;;;;5015787;28;20152;-88
2022/06/19 00:58:40;;;;;;;14.52;3.30;;;14.70;99.90;;;;;;4992979;28;20538;-89
2022/06/19 01:01:13;;;;;;;16.25;3.22;;;14.80;99.90;;;;;;4999240;28;20050;-89
2022/06/19 01:03:44;;;;;;;13.90;2.78;;;14.80;99.90;;;;;;4999704;28;20376;-89
2022/06/19 01:06:10;;;;;;;12.18;3.13;;;14.80;99.90;;;;;;5007090;28;20061;-89
2022/06/19 01:08:36;;;;;;;14.70;3.45;;;14.80;99.90;;;;;;5005032;28;20136;-91
2022/06/19 01:11:03;;;;;;;12.30;3.05;;;14.70;99.90;;;;;;4997866;28;20053;-89
2022/06/19 01:13:30;;;;;;;12.98;3.20;;;14.80;99.90;;;;;;4999891;28;20042;-91
2022/06/19 01:15:56;;;;;;;12.55;2.83;;;14.80;99.90;;;;;;4986258;28;20052;-90
2022/06/19 01:18:22;;;;;;;15.05;3.28;;;14.80;99.90;;;;;;4978238;28;20054;-88
2022/06/19 01:20:52;;;;;;;16.67;4.03;;;14.80;99.90;;;;;;5003042;28;20046;-89
2022/06/19 01:23:38;;;;;;;13.07;2.72;;;14.70;99.90;;;;;;4982588;28;20076;-89
2022/06/19 01:26:04;;;;;;;12.68;2.72;;;14.70;99.90;;;;;;4994356;28;20054;-89
2022/06/19 01:28:45;;;;;;;11.75;2.53;;;14.70;99.90;;;;;;5022760;28;20498;-89
2022/06/19 01:31:16;;;;;;;11.40;3.10;;;14.70;99.90;;;;;;4995997;28;20049;-90
2022/06/19 01:33:59;;;;;;;12.52;2.83;;;14.70;99.90;;;;;;5001602;28;20056;-88
2022/06/19 01:36:26;;;;;;;12.77;2.38;;;14.80;99.90;;;;;;4995776;28;20042;-89
2022/06/19 01:38:53;;;;;;;11.40;2.40;;;14.70;99.90;;;;;;5000811;28;20048;-88
2022/06/19 01:41:25;;;;;;;9.82;2.13;;;14.80;99.90;;;;;;4997000;28;20403;-89
2022/06/19 01:43:51;;;;;;;12.10;2.30;;;14.80;99.90;;;;;;5006705;28;20046;-89
2022/06/19 01:46:18;;;;;;;10.50;1.95;;;14.80;99.90;;;;;;4994510;28;20050;-90
2022/06/19 01:48:44;;;;;;;10.65;1.92;;;14.80;99.90;;;;;;4995427;28;20173;-88
2022/06/19 01:51:11;;;;;;;11.75;2.30;;;14.80;99.90;;;;;;5005290;28;20045;-89
2022/06/19 01:53:48;;;;;;;8.13;1.73;;;14.80;99.90;;;;;;4984856;28;20034;-87
2022/06/19 01:56:15;;;;;;;9.20;2.03;;;14.80;99.90;;;;;;5002211;28;20145;-88
2022/06/19 01:58:46;;;;;;;10.93;1.80;;;14.80;99.90;;;;;;4994886;28;20065;-90
2022/06/19 02:01:12;;;;;;;;;;;14.80;99.90;;;;;;4997028;28;20096;-93
2022/06/19 02:03:47;;;;;;;6.50;1.65;;;14.70;99.90;;;;;;4997433;28;19922;-89
2022/06/19 02:06:16;;;;;;;10.63;2.30;;;14.70;99.90;;;;;;4994732;28;20116;-90
2022/06/19 02:08:43;;;;;;;11.48;1.98;;;14.70;99.90;;;;;;4998961;28;20085;-87
2022/06/19 02:11:11;;;;;;;10.13;2.17;;;14.70;99.90;;;;;;4973034;28;20050;-91
2022/06/19 02:13:38;;;;;;;10.63;2.30;;;14.70;99.90;;;;;;4998957;28;20570;-90
2022/06/19 02:16:12;;;;;;;9.05;2.35;;;14.80;99.90;;;;;;5020566;28;20132;-87
2022/06/19 02:18:42;;;;;;;9.23;2.22;;;14.80;99.90;;;;;;5000964;28;20389;-88
2022/06/19 02:21:14;;;;;;;12.35;2.22;;;14.80;99.90;;;;;;5004270;28;20100;-89
2022/06/19 02:23:39;;;;;;;;;;;14.80;99.90;;;;;;5004959;28;20077;-88
2022/06/19 02:26:09;;;;;;;11.05;1.92;;;14.70;99.90;;;;;;4985049;28;19925;-90
2022/06/19 02:28:36;;;;;;;9.60;2.03;;;14.70;99.90;;;;;;5005189;28;20469;-89
2022/06/19 02:31:03;;;;;;;9.82;2.25;;;14.80;99.90;;;;;;4993590;28;20052;-89
2022/06/19 02:33:33;;;;;;;11.75;2.70;;;14.80;99.90;;;;;;4998437;28;20042;-92
2022/06/19 02:35:58;;;;;;;10.48;2.35;;;14.80;99.90;;;;;;4983084;28;20042;-88
2022/06/19 02:38:24;;;;;;;12.27;2.30;;;14.70;99.90;;;;;;4996294;28;20040;-89
2022/06/19 02:41:05;;;;;;;10.32;2.65;;;14.70;99.90;;;;;;5006407;28;20406;-90
2022/06/19 02:43:33;;;;;;;11.88;2.78;;;14.80;99.90;;;;;;4996481;28;20081;-88
2022/06/19 02:46:00;;;;;;;9.15;2.08;;;14.80;99.90;;;;;;4992924;28;20050;-89
2022/06/19 02:48:30;;;;;;;11.10;2.53;;;14.80;99.90;;;;;;4992507;28;20487;-91
2022/06/19 02:50:59;;;;;;;11.23;2.65;;;14.80;99.90;;;;;;4999069;28;20042;-91
2022/06/19 02:53:25;;;;;;;10.75;2.28;;;14.80;99.90;;;;;;4998562;28;20051;-89
2022/06/19 02:55:52;;;;;;;12.57;2.85;;;14.80;99.90;;;;;;4972027;28;20365;-89
2022/06/19 02:58:19;;;;;;;11.48;3.03;;;14.90;99.90;;;;;;5020541;28;20073;-88
2022/06/19 03:00:45;;;;;;;10.63;2.50;;;14.90;99.90;;;;;;4996214;28;20042;-89
2022/06/19 03:03:35;;;;;;;13.02;3.65;;;14.90;99.90;;;;;;4994536;28;20096;-89
2022/06/19 03:06:05;;;;;;;13.05;3.00;;;14.90;99.90;;;;;;5020678;28;20128;-90
2022/06/19 03:08:31;;;;;;;14.80;3.35;;;14.90;99.90;;;;;;4997039;28;20094;-92
2022/06/19 03:10:56;;;;;;;14.38;3.08;;;14.90;99.90;;;;;;5004700;28;20077;-88
2022/06/19 03:13:22;;;;;;;13.57;2.50;;;14.90;99.90;;;;;;4993949;28;20143;-89
2022/06/19 03:16:02;;;;;;;16.15;3.17;;;14.90;99.90;;;;;;5000118;28;20056;-88
2022/06/19 03:18:28;;;;;;;12.18;2.83;;;14.90;99.90;;;;;;5004975;28;20038;-88
2022/06/19 03:20:55;;;;;;;14.63;2.80;;;14.80;99.90;;;;;;4981237;28;20049;-87
2022/06/19 03:23:20;;;;;;;11.65;3.03;;;14.80;99.90;;;;;;4999865;28;20427;-88
2022/06/19 03:25:46;;;;;;;15.55;2.97;;;14.80;99.90;;;;;;5021442;28;20483;-85
2022/06/19 03:28:12;;;;;;;14.90;3.40;;;14.80;99.90;;;;;;5020174;28;20514;-90
2022/06/19 03:30:37;;;;;;;16.20;3.00;;;14.70;99.90;;;;;;5002093;28;20386;-87
2022/06/19 03:33:03;;;;;;;15.15;3.05;;;14.70;99.90;;;;;;5000354;28;20054;-92
2022/06/19 03:35:30;;;;;;;12.27;3.10;;;14.70;99.90;;;;;;4995500;28;20561;-90
2022/06/19 03:37:56;;;;;;;12.40;3.00;;;14.70;99.90;;;;;;4997242;28;20042;-87
2022/06/19 03:40:21;;;;;;;13.77;3.35;;;14.60;99.90;;;;;;4990706;28;20371;-88
2022/06/19 03:42:47;;;;;;;13.95;2.78;;;14.60;99.90;;;;;;5002721;28;20065;-87
2022/06/19 03:45:12;;;;;;;13.23;3.05;;;14.60;99.90;;;;;;5000475;28;20144;-89
2022/06/19 03:47:39;;;;;;;10.95;2.65;;;14.60;99.90;;;;;;4980805;28;20107;-87
2022/06/19 03:50:06;;;;;;;11.35;2.45;;;14.60;99.90;;;;;;4990366;28;20093;-87
2022/06/19 03:52:32;;;;;;;14.73;2.90;;;14.60;99.90;;;;;;4974325;28;20065;-88
2022/06/19 03:54:57;;;;;;;14.88;2.83;;;14.60;99.90;;;;;;4972173;28;20586;-87
2022/06/19 03:57:24;;;;;;;14.48;2.83;;;14.60;99.90;;;;;;4991492;28;20129;-89
2022/06/19 03:59:49;;;;;;;14.55;2.90;;;14.50;99.90;;;;;;4991910;28;20050;-89
2022/06/19 04:02:15;;;;;;;14.43;2.75;;;14.50;99.90;;;;;;4996304;28;20475;-87
2022/06/19 04:04:41;;;;;;;14.90;2.92;;;14.50;99.90;;;;;;4971285;28;20170;-88
2022/06/19 04:07:09;;;;;;;15.95;3.20;;;14.50;99.90;;;;;;4993148;28;20069;-89
2022/06/19 04:09:35;;;;;;;14.80;3.15;;;14.50;99.90;;;;;;4991185;28;20056;-86
2022/06/19 04:12:01;;;;;;;12.50;2.70;;;14.60;99.90;;;;;;4994277;28;20076;-87
2022/06/19 04:14:26;;;;;;;15.63;3.25;;;14.60;99.90;;;;;;4998825;28;20513;-85
2022/06/19 04:16:52;;;;;;;12.80;2.60;;;14.60;99.90;;;;;;4977264;28;20051;-87
2022/06/19 04:19:17;;;;;;;12.00;2.80;;;14.70;99.90;;;;;;4996604;28;20097;-90
2022/06/19 04:21:45;;;;;;;13.25;3.30;;;14.70;99.90;;;;;;4996405;28;20049;-87
2022/06/19 04:24:13;;;;;;;14.23;3.40;;;14.70;99.90;;;;;;4990427;28;20167;-86
2022/06/19 04:26:39;;;;;;;12.07;2.50;;;14.70;99.90;;;;;;4999105;28;20068;-85
2022/06/19 04:29:06;;;;;;;15.75;2.80;;;14.70;99.90;;;;;;4997741;28;20054;-88
2022/06/19 04:31:32;;;;;;;13.40;2.70;;;14.80;99.90;;;;;;4980108;28;20134;-85
2022/06/19 04:34:00;;;;;;;12.68;2.83;;;14.70;99.90;;;;;;5001150;28;20077;-85
2022/06/19 04:36:31;;;;;;;13.32;2.85;;;14.70;99.90;;;;;;4999807;28;20042;-86
2022/06/19 04:38:58;;;;;;;13.38;2.80;;;14.80;99.90;;;;;;5021220;28;20057;-87
2022/06/19 04:41:28;;;;;;;10.65;2.47;;;14.80;99.90;;;;;;4993167;28;20034;-85
2022/06/19 04:43:54;;;;;;;11.75;2.70;;;14.80;99.90;;;;;;4997811;28;20446;-87
2022/06/19 04:46:20;;;;;;;11.70;2.60;;;14.80;99.90;;;;;;4978327;28;20137;-89
2022/06/19 04:48:46;;;;;;;11.70;2.30;;;14.80;99.90;;;;;;4977592;28;20035;-83
2022/06/19 04:51:12;;;;;;;10.85;2.15;;;14.90;99.90;;;;;;5002776;28;20058;-88
2022/06/19 04:53:39;;;;;;;10.43;2.05;;;14.90;99.90;;;;;;5001214;28;20045;-87
2022/06/19 04:56:06;;;;;;;11.00;2.33;;;14.90;99.90;;;;;;5004349;28;20058;-90
2022/06/19 04:58:32;;;;;;;12.07;2.60;;;14.90;99.90;;;;;;5002444;28;20180;-89
2022/06/19 05:01:01;;;;;;;11.43;2.28;;;15.00;99.90;;;;;;5001652;28;20505;-90
2022/06/19 05:03:27;;;;;;;9.73;1.65;;;15.00;99.90;;;;;;4997646;28;20049;-91
2022/06/19 05:05:53;;;;;;;10.82;2.20;;;15.00;99.90;;;;;;4994598;28;20507;-90
2022/06/19 05:08:20;;;;;;;8.52;2.08;;;15.00;99.90;;;;;;4999651;28;20731;-90
2022/06/19 05:10:46;;;;;;;8.32;1.85;;;15.00;99.90;;;;;;4995214;28;20050;-87
2022/06/19 05:13:18;;;;;;;10.13;2.42;;;15.00;99.90;;;;;;5005150;28;20099;-88
2022/06/19 05:15:46;;;;;;;9.10;2.67;;;15.10;99.90;;;;;;4998582;28;20050;-92
2022/06/19 05:18:12;;;;;;;9.20;1.70;;;15.10;99.90;;;;;;4984773;28;20168;-88
2022/06/19 05:20:38;;;;;;;12.40;2.30;;;15.10;99.90;;;;;;4993646;28;20038;-88
2022/06/19 05:23:05;;;;;;;12.20;2.33;;;15.10;99.90;;;;;;5003457;28;20034;-85
2022/06/19 05:25:31;;;;;;;8.55;1.88;;;15.10;99.90;;;;;;4997275;28;20058;-87
2022/06/19 05:27:57;;;;;;;8.32;1.77;;;15.20;99.90;;;;;;4997352;28;20049;-87
2022/06/19 05:30:22;;;;;;;9.20;1.90;;;15.10;99.90;;;;;;4997471;28;20081;-89
2022/06/19 05:32:48;;;;;;;7.72;1.73;;;15.10;99.90;;;;;;4998517;28;20041;-90
2022/06/19 05:35:14;;;;;;;10.57;1.95;;;15.10;99.90;;;;;;4995411;28;20046;-92
2022/06/19 05:37:39;;;;;;;9.10;1.88;;;15.10;99.90;;;;;;4996327;28;20129;-85
2022/06/19 05:40:05;;;;;;;8.43;1.85;;;15.00;99.90;;;;;;4999759;28;20038;-86
2022/06/19 05:42:31;;;;;;;9.43;2.40;;;14.90;99.90;;;;;;4999140;28;20128;-86
2022/06/19 05:44:57;;;;;;;10.13;2.70;;;14.80;99.90;;;;;;4983685;28;20481;-87
2022/06/19 05:47:22;;;;;;;10.00;2.58;;;14.70;99.90;;;;;;5021644;28;20042;-87
2022/06/19 05:49:48;;;;;;;16.88;3.15;;;14.70;99.90;;;;;;4992922;28;20128;-85
2022/06/19 05:52:20;;;;;;;12.15;2.65;;;14.60;99.90;;;;;;4996782;28;20125;-84
2022/06/19 05:54:46;;;;;;;12.25;2.95;;;14.60;99.90;;;;;;5015811;28;20039;-87
2022/06/19 05:57:12;;;;;;;13.32;2.50;;;14.60;99.90;;;;;;4998935;28;20054;-84
2022/06/19 05:59:37;;;;;;;11.40;2.33;;;14.60;99.90;;;;;;4997949;28;20041;-88
2022/06/19 06:02:04;;;;;;;10.70;2.85;;;14.60;99.90;;;;;;4997046;28;20046;-85
2022/06/19 06:04:29;;;;;;;11.00;2.80;;;14.60;99.90;;;;;;4996918;28;20043;-86
2022/06/19 06:06:55;;;;;;;11.55;2.70;;;14.70;99.90;;;;;;4999792;28;20033;-85
2022/06/19 06:09:21;;;;;;;10.55;2.30;;;14.60;99.90;;;;;;4999108;28;20069;-88
2022/06/19 06:11:47;;;;;;;9.13;2.17;;;14.60;99.90;;;;;;5002588;28;20057;-87
2022/06/19 06:14:12;;;;;;;11.93;2.25;;;14.60;99.90;;;;;;5002797;28;20506;-85
2022/06/19 06:16:38;;;;;;;9.10;2.20;;;14.50;99.90;;;;;;4998252;28;20034;-85
2022/06/19 06:19:04;;;;;;;12.05;2.33;;;14.50;99.90;;;;;;4996797;28;20042;-83
2022/06/19 06:21:30;;;;;;;12.35;3.17;;;14.40;99.90;;;;;;5002721;28;20031;-86
2022/06/19 06:23:55;;;;;;;12.23;2.45;;;14.30;99.90;;;;;;4997695;28;20086;-85
2022/06/19 06:26:24;;;;;;;12.38;2.47;;;14.30;99.90;;;;;;4993775;28;20050;-86
2022/06/19 06:28:51;;;;;;;10.57;2.40;;;14.30;99.90;;;;;;4980020;28;20494;-90
2022/06/19 06:31:18;;;;;;;11.10;2.50;;;14.30;99.90;;;;;;4996368;28;20133;-86
2022/06/19 06:33:43;;;;;;;11.40;2.70;;;14.20;99.90;;;;;;4992677;28;20355;-86
2022/06/19 06:36:10;;;;;;;11.77;2.67;;;14.30;99.90;;;;;;4995871;28;20053;-88
2022/06/19 06:38:36;;;;;;;12.65;2.50;;;14.30;99.90;;;;;;4998081;28;20038;-85
2022/06/19 06:41:04;;;;;;;13.50;3.00;;;14.30;99.90;;;;;;4999249;28;20391;-85
2022/06/19 06:43:30;;;;;;;12.68;2.88;;;14.30;99.90;;;;;;4997372;28;20038;-88
2022/06/19 06:46:07;;;;;;;12.10;2.92;;;14.30;99.90;;;;;;4993864;28;20049;-87
2022/06/19 06:48:33;;;;;;;10.85;3.05;;;14.40;99.90;;;;;;4998014;28;20054;-86
2022/06/19 06:50:59;;;;;;;13.25;3.38;;;14.40;99.90;;;;;;4997373;28;20109;-85
2022/06/19 06:53:24;;;;;;;11.90;2.90;;;14.50;99.90;;;;;;4997628;28;20045;-95
2022/06/19 06:55:50;;;;;;;11.80;3.00;;;14.40;99.90;;;;;;5005256;28;20042;-89
2022/06/19 06:58:15;;;;;;;11.38;2.30;;;14.40;99.90;;;;;;5004568;28;20136;-88
2022/06/19 07:00:42;;;;;;;13.23;2.83;;;14.40;99.90;;;;;;4996560;28;20049;-86
2022/06/19 07:03:09;;;;;;;12.48;2.67;;;14.50;99.90;;;;;;4997369;28;20073;-86
2022/06/19 07:05:35;;;;;;;12.90;2.67;;;14.50;99.90;;;;;;4990027;28;20057;-87
2022/06/19 07:08:01;;;;;;;11.40;2.85;;;14.60;99.90;;;;;;4994258;28;20042;-88
2022/06/19 07:10:27;;;;;;;12.00;2.58;;;14.60;99.90;;;;;;4997193;28;20586;-88
2022/06/19 07:12:53;;;;;;;11.40;2.80;;;14.70;99.90;;;;;;4974437;28;20066;-86
2022/06/19 07:15:18;;;;;;;13.60;2.80;;;14.70;99.90;;;;;;4995608;28;20061;-88
2022/06/19 07:17:44;;;;;;;11.50;2.35;;;14.70;99.90;;;;;;4992134;28;20030;-88
2022/06/19 07:20:10;;;;;;;11.63;2.50;;;14.70;99.90;;;;;;5003686;28;20125;-85
2022/06/19 07:22:36;;;;;;;11.23;2.50;;;14.80;99.90;;;;;;4999832;28;20081;-86
2022/06/19 07:25:07;;;;;;;10.75;2.58;;;14.80;99.90;;;;;;4991996;28;20070;-85
2022/06/19 07:27:32;;;;;;;9.70;2.40;;;14.80;99.90;;;;;;4998427;28;20045;-85
2022/06/19 07:29:58;;;;;;;12.98;2.90;;;14.90;99.90;;;;;;4997096;28;20642;-85
2022/06/19 07:32:23;;;;;;;13.90;2.70;;;14.90;99.90;;;;;;4992794;28;20042;-88
2022/06/19 07:34:49;;;;;;;13.25;2.70;;;14.90;99.90;;;;;;4984406;28;20141;-89
2022/06/19 07:37:15;;;;;;;12.93;2.30;;;14.80;99.90;;;;;;4998603;28;20479;-90
2022/06/19 07:39:42;;;;;;;14.85;2.63;;;14.90;99.90;;;;;;4972728;28;20041;-88
2022/06/19 07:42:08;;;;;;;11.90;2.45;;;15.00;99.90;;;;;;4994831;28;20466;-88
2022/06/19 07:44:39;;;;;;;12.02;2.83;;;15.00;99.90;;;;;;4995354;28;20034;-88
2022/06/19 07:50:09;;;;;;;12.10;2.67;;;14.90;99.90;;;;;;5020023;28;20305;-88
2022/06/19 07:52:35;;;;;;;9.35;2.42;;;14.90;99.90;;;;;;4991986;28;20217;-89
2022/06/19 07:55:01;;;;;;;10.75;2.38;;;14.90;99.90;;;;;;5003093;28;20502;-89
2022/06/19 07:57:27;;;;;;;12.43;2.70;;;14.90;99.90;;;;;;4990830;28;20049;-88
2022/06/19 07:59:53;;;;;;;12.45;2.28;;;14.90;99.90;;;;;;4993253;28;20038;-89
2022/06/19 08:02:18;;;;;;;13.38;3.00;;;15.00;99.90;;;;;;4995841;28;21027;-90
2022/06/19 08:04:44;;;;;;;10.80;2.13;;;15.00;99.90;;;;;;4991905;28;20273;-89
2022/06/19 08:07:14;;;;;;;9.40;2.40;;;15.00;99.90;;;;;;5020357;28;20038;-90
2022/06/19 08:09:40;;;;;;;9.60;2.33;;;15.00;99.90;;;;;;4995450;28;20058;-89
2022/06/19 08:12:06;;;;;;;10.82;2.60;;;15.00;99.90;;;;;;4997306;28;20054;-89
2022/06/19 08:14:31;;;;;;;12.85;2.35;;;15.00;99.90;;;;;;5003098;28;20038;-89
2022/06/19 08:16:57;;;;;;;12.05;2.90;;;15.00;99.90;;;;;;4996254;28;20045;-90
2022/06/19 08:19:23;;;;;;;11.68;2.67;;;15.10;99.90;;;;;;4972831;28;20065;-90
2022/06/19 08:21:49;;;;;;;9.13;2.20;;;15.10;99.90;;;;;;4993569;28;20058;-90
2022/06/19 08:24:14;;;;;;;10.18;2.50;;;15.20;99.90;;;;;;5020596;28;20770;-85
2022/06/19 08:26:40;;;;;;;11.02;2.60;;;15.20;99.90;;;;;;4995534;28;20046;-88
2022/06/19 08:29:05;;;;;;;12.05;2.65;;;15.30;99.90;;;;;;4989730;28;20074;-89
2022/06/19 08:31:32;;;;;;;10.23;2.10;;;15.40;99.90;;;;;;4990760;28;20042;-87
2022/06/19 08:33:58;;;;;;;11.52;2.33;;;15.50;99.90;;;;;;5004398;28;20100;-90
2022/06/19 08:36:26;;;;;;;13.13;2.72;;;15.50;99.90;;;;;;4997049;28;20442;-88
2022/06/19 08:38:56;;;;;;;10.57;2.33;;;15.60;99.90;;;;;;4995020;28;20054;-89
2022/06/19 08:41:43;;;;;;;10.65;2.10;;;15.60;99.90;;;;;;4969787;28;20042;-86
2022/06/19 08:44:18;;;;;;;11.85;2.38;;;15.60;99.90;;;;;;4989862;28;20107;-89
2022/06/19 08:46:50;;;;;;;12.10;2.42;;;15.50;99.90;;;;;;4993031;28;20095;-89
2022/06/19 08:49:18;;;;;;;13.27;3.42;;;15.50;99.90;;;;;;4987145;28;20072;-89
2022/06/19 08:52:06;;;;;;;12.57;2.92;;;15.40;99.90;;;;;;5015250;28;20033;-86
2022/06/19 08:54:45;;;;;;;12.05;3.03;;;15.50;99.90;;;;;;4996843;28;20518;-88
2022/06/19 08:57:31;;;;;;;10.32;2.40;;;15.40;99.90;;;;;;4997478;28;20505;-88
2022/06/19 09:00:13;;;;;;;9.90;2.30;;;15.40;99.90;;;;;;4989916;28;20050;-88
2022/06/19 09:02:49;;;;;;;11.18;2.88;;;15.40;99.90;;;;;;4992156;28;20181;-85
2022/06/19 09:05:46;;;;;;;11.82;2.50;;;15.40;99.90;;;;;;5004847;28;20406;-87
2022/06/19 09:08:33;;;;;;;10.52;2.47;;;15.30;99.90;;;;;;4992725;28;20084;-88
2022/06/19 09:11:14;;;;;;;11.68;2.78;;;15.20;99.90;;;;;;5000867;28;20100;-88
2022/06/19 09:13:55;;;;;;;13.05;3.17;;;15.20;99.90;;;;;;4978426;28;20046;-89
2022/06/19 09:16:20;;;;;;;11.55;2.72;;;15.10;99.90;;;;;;4986360;28;20050;-90
2022/06/19 09:19:02;;;;;;;14.10;3.00;;;15.10;99.90;;;;;;4987642;28;20062;-90
2022/06/19 09:21:52;;;;;;;12.80;2.72;;;15.10;99.90;;;;;;4998352;28;20046;-86
2022/06/19 09:24:58;;;;;;;12.90;3.28;;;15.00;99.90;;;;;;4996496;28;20070;-90
2022/06/19 09:27:30;;;;;;;13.73;3.03;;;15.00;99.90;;;;;;4964113;28;20050;-87
2022/06/19 09:30:10;;;;;;;9.65;2.60;;;15.00;99.90;;;;;;4989083;28;20083;-89
2022/06/19 09:32:44;;;;;;;13.82;3.13;;;15.10;99.90;;;;;;5001570;28;20046;-89
2022/06/19 09:35:16;;;;;;;10.63;2.67;;;15.20;99.90;;;;;;4994791;28;20100;-88
2022/06/19 09:37:53;;;;;;;11.55;2.72;;;15.20;99.90;;;;;;4989057;28;20054;-86
2022/06/19 09:40:27;;;;;;;14.43;3.50;;;15.30;99.90;;;;;;5001502;28;20112;-92
2022/06/19 09:43:12;;;;;;;13.20;3.35;;;15.30;99.90;;;;;;4993995;28;20494;-89
2022/06/19 09:46:04;;;;;;;13.70;2.83;;;15.30;99.90;;;;;;5018669;28;20050;-91
2022/06/19 09:49:01;;;;;;;13.93;2.97;;;15.50;99.90;;;;;;5003130;28;20415;-92
2022/06/19 09:51:40;;;;;;;8.95;2.35;;;15.60;99.90;;;;;;4995273;28;20081;-90
2022/06/19 09:54:12;;;;;;;11.05;2.38;;;15.60;99.90;;;;;;5002384;28;20049;-90
2022/06/19 09:56:42;;;;;;;13.00;3.05;;;15.70;99.90;;;;;;4982552;28;20125;-88
2022/06/19 09:59:26;;;;;;;12.97;2.53;;;15.70;99.90;;;;;;5005498;28;20422;-90
2022/06/19 10:01:57;;;;;;;12.73;2.97;;;15.70;99.90;;;;;;4998405;28;20155;-89
2022/06/19 10:04:58;;;;;;;10.32;3.03;;;15.70;99.90;;;;;;4997040;28;20046;-91
2022/06/19 10:07:43;;;;;;;8.95;2.38;;;15.80;99.90;;;;;;4987681;28;20062;-88
2022/06/19 10:10:34;;;;;;;9.60;2.40;;;15.90;99.90;;;;;;5022633;28;20056;-93
2022/06/19 10:13:03;;;;;;;10.50;2.70;;;15.90;99.90;;;;;;4983476;28;20073;-91
2022/06/19 10:15:32;;;;;;;11.88;2.80;;;16.00;99.90;;;;;;5001138;28;20072;-90
2022/06/19 10:18:17;;;;;;;8.23;2.60;;;16.00;99.90;;;;;;5007957;28;20490;-88
2022/06/19 10:21:04;;;;;;;9.65;2.75;;;16.00;99.90;;;;;;4999678;28;20145;-90
2022/06/19 10:23:39;;;;;;;10.20;2.63;;;16.10;99.90;;;;;;4980538;28;20133;-87
2022/06/19 10:26:29;;;;;;;9.05;2.67;;;16.40;99.90;;;;;;4997312;28;20046;-87
2022/06/19 10:29:18;;;;;;;9.55;3.05;;;16.50;99.90;;;;;;4997222;28;20054;-90
2022/06/19 10:32:01;;;;;;;8.57;2.80;;;16.60;99.90;;;;;;4993809;28;20046;-91
2022/06/19 10:34:57;;;;;;;10.90;2.53;;;16.70;99.90;;;;;;4995912;28;20034;-89
2022/06/19 10:37:37;;;;;;;8.63;2.33;;;16.70;99.90;;;;;;5001727;28;20059;-90
2022/06/19 10:40:18;;;;;;;11.10;2.70;;;16.80;99.90;;;;;;4993992;28;20439;-89
2022/06/19 10:43:08;;;;;;;8.17;2.33;;;16.80;99.90;;;;;;4980421;28;20057;-89
2022/06/19 10:45:38;;;;;;;10.75;2.10;;;16.80;99.90;;;;;;4997257;28;20345;-87
2022/06/19 10:48:30;;;;;;;9.35;2.28;;;16.80;99.90;;;;;;4983444;28;20132;-87
2022/06/19 10:51:31;;;;;;;9.57;2.35;;;16.80;99.90;;;;;;4980034;28;20045;-91
2022/06/19 10:54:03;;;;;;;10.13;2.42;;;16.70;99.90;;;;;;4997295;28;20054;-90
2022/06/19 10:56:52;;;;;;;9.45;2.20;;;16.60;99.90;;;;;;4997294;28;20057;-90
2022/06/19 10:59:18;;;;;;;9.20;2.13;;;16.50;99.90;;;;;;4976017;28;20042;-92
2022/06/19 11:04:47;;;;;;;8.05;1.83;;;16.50;99.90;;;;;;5001213;28;20046;-90
2022/06/19 11:07:16;;;;;;;10.15;2.45;;;16.60;99.90;;;;;;4977429;28;20129;-89
2022/06/19 11:09:55;;;;;;;8.63;2.00;;;16.60;99.90;;;;;;4998443;28;20263;-91
2022/06/19 11:12:39;;;;;;;8.00;2.15;;;16.50;99.90;;;;;;5004967;28;20068;-91
2022/06/19 11:15:08;;;;;;;7.32;1.75;;;16.50;99.90;;;;;;4996975;28;20041;-89
2022/06/19 11:17:41;;;;;;;10.20;1.90;;;16.50;99.90;;;;;;5020918;28;20399;-89
2022/06/19 11:20:16;;;;;;;9.45;2.17;;;16.50;99.90;;;;;;4998442;28;20092;-88
2022/06/19 11:22:47;;;;;;;7.50;1.70;;;16.50;99.90;;;;;;4980138;28;20054;-88
2022/06/19 11:25:24;;;;;;;;;;;16.50;99.90;;;;;;4994959;28;20096;-89
2022/06/19 11:28:16;;;;;;;8.32;2.00;;;16.40;99.90;;;;;;4996500;28;20305;-89
2022/06/19 11:30:50;;;;;;;7.88;2.00;;;16.40;99.90;;;;;;4996769;28;20044;-84
2022/06/19 11:33:33;;;;;;;8.60;1.80;;;16.40;99.90;;;;;;5017699;28;20045;-90
2022/06/19 11:36:02;;;;;;;10.40;2.28;;;16.50;99.90;;;;;;4991287;28;20042;-87
2022/06/19 11:38:44;;;;;;;7.78;2.00;;;16.40;99.90;;;;;;4993073;28;20058;-90
2022/06/19 11:41:35;;;;;;;7.82;2.10;;;16.50;99.90;;;;;;4990371;28;20406;-85
2022/06/19 11:44:17;;;;;;;8.88;1.80;;;16.50;99.90;;;;;;4997483;28;20096;-89
2022/06/19 11:46:47;;;;;;;7.65;2.15;;;16.60;99.90;;;;;;5002870;28;20514;-88
2022/06/19 11:49:37;;;;;;;7.88;2.33;;;16.50;99.90;;;;;;4978681;28;20050;-90
2022/06/19 11:52:17;;;;;;;7.97;1.95;;;16.60;99.90;;;;;;4996776;28;20053;-89
2022/06/19 11:54:46;;;;;;;8.10;1.77;;;16.50;99.90;;;;;;4985992;28;20329;-93
2022/06/19 11:57:27;;;;;;;8.57;1.75;;;16.70;99.90;;;;;;4994294;28;20144;-90
2022/06/19 11:59:59;;;;;;;7.43;1.60;;;16.70;99.90;;;;;;4978003;28;20124;-87
2022/06/19 12:02:36;;;;;;;5.97;1.50;;;16.60;99.90;;;;;;4994057;28;20042;-90
2022/06/19 12:05:19;;;;;;;7.88;1.50;;;16.50;99.90;;;;;;4997167;28;20088;-88
2022/06/19 12:07:45;;;;;;;7.25;1.48;;;16.30;99.90;;;;;;4988369;23;20055;-90
2022/06/19 12:10:14;;;;;;;6.38;1.55;;;16.20;99.90;;;;;;4964029;28;20047;-91
2022/06/19 12:12:50;;;;;;;6.10;1.50;;;16.20;99.90;;;;;;4960555;28;20046;-89
2022/06/19 12:15:25;;;;;;;7.72;1.67;;;16.20;99.90;;;;;;4961339;28;20070;-89
2022/06/19 12:18:03;;;;;;;10.38;1.95;;;16.10;99.90;;;;;;4978836;28;20047;-89
2022/06/19 12:20:31;;;;;;;5.43;1.85;;;16.20;99.90;;;;;;4955598;28;20414;-88
2022/06/19 12:23:15;;;;;;;5.25;1.55;;;16.30;99.90;;;;;;4976920;28;20069;-88
2022/06/19 12:26:11;;;;;;;8.48;1.70;;;16.40;99.90;;;;;;4977601;28;20124;-85
2022/06/19 12:28:41;;;;;;;5.30;1.45;;;16.60;99.90;;;;;;4977119;28;20050;-90
2022/06/19 12:31:16;;;;;;;5.72;1.52;;;16.80;99.90;;;;;;4980887;28;20062;-88
2022/06/19 12:34:01;;;;;;;6.47;1.40;;;17.00;99.90;;;;;;4975912;28;20398;-89
2022/06/19 12:36:32;;;;;;;8.10;1.70;;;17.10;99.90;;;;;;4975977;28;20053;-88
2022/06/19 12:38:57;;;;;;;6.43;1.33;;;17.20;99.90;;;;;;4974942;28;20121;-89
2022/06/19 12:41:41;;;;;;;6.60;1.80;;;17.30;99.90;;;;;;4983382;28;20156;-88
2022/06/19 12:44:18;;;;;;;6.43;1.83;;;17.50;99.90;;;;;;4979328;28;20053;-87
2022/06/19 12:46:46;;;;;;;4.93;1.40;;;17.60;99.90;;;;;;4982162;28;20054;-86
2022/06/19 12:49:37;;;;;;;6.25;1.77;;;17.60;99.90;;;;;;4981304;28;20049;-85
2022/06/19 12:52:34;;;;;;;4.72;1.17;;;17.80;99.90;;;;;;4976703;28;20050;-86
2022/06/19 12:55:36;;;;;;;5.25;1.58;;;17.80;99.90;;;;;;4984619;28;20038;-85
2022/06/19 12:58:28;;;;;;;5.45;1.30;;;17.90;99.90;;;;;;4984357;28;20053;-87
2022/06/19 13:01:04;;;;;;;6.75;1.30;;;17.80;99.90;;;;;;4985997;28;20038;-88
2022/06/19 13:03:51;;;;;;;5.25;1.10;;;17.80;99.90;;;;;;4980408;28;20054;-87
2022/06/19 13:06:20;;;;;;;5.32;1.45;;;17.80;99.90;;;;;;5010230;23;20058;31
2022/06/19 13:08:57;;;;;;;6.32;1.20;;;17.70;99.90;;;;;;4989959;28;20050;-86